Time;durP1;ratioP1;P1;durP2;ratioP2;P2;SDS_P1;SDS_P2;PMS_P1;PMS_P2;Temp;Humidity;BMP_temperature;BMP_pressure;BME280_temperature;BME280_humidity;BME280_pressure;Samples;Min_cycle;Max_cycle;Signal;HPM_P1;HPM_P2
2022/08/18 00:01:39;;;;;;;;;;;20.60;67.40;;;;;;5121674;27;19930;-63
2022/08/18 00:04:14;;;;;;;;;;;20.60;67.50;;;;;;5129946;27;20430;-63
2022/08/18 00:06:50;;;;;;;;;;;20.70;67.50;;;;;;5130330;27;19951;-62
2022/08/18 00:09:20;;;;;;;;;;;20.60;67.60;;;;;;5126708;27;19919;-63
2022/08/18 00:11:47;;;;;;;;;;;20.60;67.80;;;;;;5128873;27;19934;-63
2022/08/18 00:14:14;;;;;;;;;;;20.60;67.80;;;;;;5131891;27;19919;-62
2022/08/18 00:16:41;;;;;;;;;;;20.50;67.80;;;;;;5129438;27;19982;-62
2022/08/18 00:19:08;;;;;;;;;;;20.60;67.90;;;;;;5127121;27;20010;-63
2022/08/18 00:21:36;;;;;;;;;;;20.60;67.90;;;;;;5129215;27;19931;-63
2022/08/18 00:24:03;;;;;;;;;;;20.50;67.90;;;;;;5126736;27;20366;-62
2022/08/18 00:26:29;;;;;;;;;;;20.50;68.00;;;;;;5128441;27;20288;-63
2022/08/18 00:28:56;;;;;;;;;;;20.50;68.00;;;;;;5125940;27;19923;-63
2022/08/18 00:31:23;;;;;;;;;;;20.50;68.10;;;;;;5130898;27;19926;-63
2022/08/18 00:33:50;;;;;;;;;;;20.40;68.20;;;;;;5131781;27;19964;-63
2022/08/18 00:36:16;;;;;;;;;;;20.40;68.30;;;;;;5128008;27;19926;-63
2022/08/18 00:38:44;;;;;;;;;;;20.40;68.30;;;;;;5127485;27;19927;-63
2022/08/18 00:41:11;;;;;;;;;;;20.40;68.30;;;;;;5128283;27;20436;-63
2022/08/18 00:43:41;;;;;;;;;;;20.40;68.30;;;;;;5132011;27;19923;-63
2022/08/18 00:46:09;;;;;;;;;;;20.40;68.30;;;;;;5127588;27;19920;-64
2022/08/18 00:48:36;;;;;;;;;;;20.40;68.40;;;;;;5131463;27;19930;-63
2022/08/18 00:51:04;;;;;;;;;;;20.40;68.50;;;;;;5129513;27;20218;-63
2022/08/18 00:53:34;;;;;;;;;;;20.50;68.40;;;;;;5120902;27;19927;-62
2022/08/18 00:56:07;;;;;;;;;;;20.50;68.30;;;;;;5124886;27;20411;-62
2022/08/18 00:58:36;;;;;;;;;;;20.50;68.30;;;;;;5126792;27;19968;-62
2022/08/18 01:01:04;;;;;;;;;;;20.40;68.50;;;;;;5124764;27;20344;-63
2022/08/18 01:03:32;;;;;;;;;;;20.40;68.60;;;;;;5128529;27;19998;-63
2022/08/18 01:06:01;;;;;;;;;;;20.40;68.60;;;;;;5127639;27;20299;-63
2022/08/18 01:08:28;;;;;;;;;;;20.40;68.70;;;;;;5129605;27;19919;-66
2022/08/18 01:10:55;;;;;;;;;;;20.40;68.60;;;;;;5130402;27;19927;-63
2022/08/18 01:13:26;;;;;;;;;;;20.40;68.70;;;;;;5131525;27;19925;-63
2022/08/18 01:15:53;;;;;;;;;;;20.40;68.70;;;;;;5129595;27;19919;-63
2022/08/18 01:23:52;;;;;;;;;;;20.40;68.80;;;;;;5127383;27;19919;-63
2022/08/18 01:26:18;;;;;;;;;;;20.40;68.90;;;;;;5127883;27;19923;-63
2022/08/18 01:28:46;;;;;;;;;;;20.30;69.00;;;;;;5129410;27;19927;-63
2022/08/18 01:31:13;;;;;;;;;;;20.30;69.10;;;;;;5130945;27;19920;-63
2022/08/18 01:33:42;;;;;;;;;;;20.30;69.30;;;;;;5130715;27;19928;-63
2022/08/18 01:36:15;;;;;;;;;;;20.30;69.20;;;;;;5131142;27;19955;-63
2022/08/18 01:38:42;;;;;;;;;;;20.30;69.10;;;;;;5114121;27;19926;-63
2022/08/18 01:41:10;;;;;;;;;;;20.30;69.00;;;;;;5127535;27;19927;-63
2022/08/18 01:43:37;;;;;;;;;;;20.20;69.10;;;;;;5124383;27;19927;-63
2022/08/18 01:46:05;;;;;;;;;;;20.30;69.10;;;;;;5128793;27;19919;-63
2022/08/18 01:48:33;;;;;;;;;;;20.20;69.00;;;;;;5129880;27;19927;-63
2022/08/18 01:50:59;;;;;;;;;;;20.20;69.10;;;;;;5125131;27;19973;-63
2022/08/18 01:53:27;;;;;;;;;;;20.20;69.30;;;;;;5131295;27;19923;-63
2022/08/18 01:55:54;;;;;;;;;;;20.20;69.50;;;;;;5130029;27;19920;-63
2022/08/18 01:58:26;;;;;;;;;;;20.20;69.70;;;;;;5131370;27;19919;-63
2022/08/18 02:00:55;;;;;;;;;;;20.10;69.70;;;;;;5120194;27;19926;-63
2022/08/18 02:03:25;;;;;;;;;;;20.20;69.70;;;;;;5136404;27;19963;-63
2022/08/18 02:05:55;;;;;;;;;;;20.20;69.70;;;;;;5123297;27;19919;-63
2022/08/18 02:08:22;;;;;;;;;;;20.20;69.60;;;;;;5123615;27;19931;-63
2022/08/18 02:10:49;;;;;;;;;;;20.20;69.70;;;;;;5118917;27;19920;-62
2022/08/18 02:13:15;;;;;;;;;;;20.10;69.70;;;;;;5130887;27;20007;-63
2022/08/18 02:15:43;;;;;;;;;;;20.10;69.70;;;;;;5132625;27;19923;-63
2022/08/18 02:18:13;;;;;;;;;;;20.10;69.70;;;;;;5129409;27;19919;-62
2022/08/18 02:20:40;;;;;;;;;;;20.20;69.60;;;;;;5127214;27;20380;-62
2022/08/18 02:23:07;;;;;;;;;;;20.10;69.70;;;;;;5131863;27;20372;-62
2022/08/18 02:25:34;;;;;;;;;;;20.10;69.70;;;;;;5133086;27;20013;-62
2022/08/18 02:28:00;;;;;;;;;;;20.10;69.80;;;;;;5126276;27;19919;-63
2022/08/18 02:30:27;;;;;;;;;;;20.10;69.90;;;;;;5125872;27;19926;-62
2022/08/18 02:32:57;;;;;;;;;;;20.10;70.00;;;;;;5131408;27;19920;-64
2022/08/18 02:35:24;;;;;;;;;;;20.00;70.20;;;;;;5127597;27;20145;-62
2022/08/18 02:37:51;;;;;;;;;;;20.10;70.10;;;;;;5124580;27;19919;-62
2022/08/18 02:40:18;;;;;;;;;;;20.10;70.10;;;;;;5126692;27;19925;-62
2022/08/18 02:42:46;;;;;;;;;;;20.10;70.10;;;;;;5132001;27;19920;-63
2022/08/18 02:45:13;;;;;;;;;;;20.10;70.10;;;;;;5131130;27;19942;-63
2022/08/18 02:47:40;;;;;;;;;;;20.10;70.00;;;;;;5133718;27;19920;-63
2022/08/18 02:50:08;;;;;;;;;;;20.10;69.90;;;;;;5129558;27;20021;-62
2022/08/18 02:52:35;;;;;;;;;;;20.10;69.90;;;;;;5133472;27;19920;-62
2022/08/18 02:55:02;;;;;;;;;;;20.10;70.20;;;;;;5130458;27;19934;-63
2022/08/18 02:57:29;;;;;;;;;;;20.00;70.30;;;;;;5131017;27;20005;-63
2022/08/18 02:59:56;;;;;;;;;;;20.00;70.40;;;;;;5132391;27;20407;-63
2022/08/18 03:02:23;;;;;;;;;;;20.00;70.60;;;;;;5128387;27;20017;-63
2022/08/18 03:04:50;;;;;;;;;;;20.00;70.60;;;;;;5127034;27;19927;-63
2022/08/18 03:07:18;;;;;;;;;;;19.90;70.70;;;;;;5133033;27;19995;-62
2022/08/18 03:09:44;;;;;;;;;;;19.90;70.90;;;;;;5129117;27;19919;-62
2022/08/18 03:12:12;;;;;;;;;;;19.90;71.00;;;;;;5136901;27;19926;-62
2022/08/18 03:14:39;;;;;;;;;;;19.80;71.20;;;;;;5131690;27;19980;-62
2022/08/18 03:17:08;;;;;;;;;;;19.90;70.90;;;;;;5130453;27;20300;-63
2022/08/18 03:19:35;;;;;;;;;;;19.90;70.60;;;;;;5131637;27;19985;-63
2022/08/18 03:22:03;;;;;;;;;;;20.00;70.30;;;;;;5128585;27;19924;-62
2022/08/18 03:24:31;;;;;;;;;;;19.90;70.50;;;;;;5129758;27;19923;-62
2022/08/18 03:26:58;;;;;;;;;;;19.80;70.50;;;;;;5128983;27;20380;-62
2022/08/18 03:29:25;;;;;;;;;;;19.80;70.70;;;;;;5128671;27;19927;-61
2022/08/18 03:31:52;;;;;;;;;;;19.80;70.80;;;;;;5122415;27;19920;-62
2022/08/18 03:34:19;;;;;;;;;;;19.70;70.80;;;;;;5122734;27;19919;-62
2022/08/18 03:36:46;;;;;;;;;;;19.70;70.80;;;;;;5124035;27;19919;-63
2022/08/18 03:39:13;;;;;;;;;;;19.80;70.80;;;;;;5128110;27;19996;-64
2022/08/18 03:41:42;;;;;;;;;;;19.90;70.70;;;;;;5135869;27;19972;-63
2022/08/18 03:44:09;;;;;;;;;;;19.90;70.80;;;;;;5130504;27;19979;-63
2022/08/18 03:46:36;;;;;;;;;;;19.80;70.80;;;;;;5129866;27;19934;-62
2022/08/18 03:49:03;;;;;;;;;;;19.80;70.90;;;;;;5120826;27;19958;-62
2022/08/18 03:51:31;;;;;;;;;;;19.80;71.00;;;;;;5127793;27;19920;-62
2022/08/18 03:54:00;;;;;;;;;;;19.70;71.10;;;;;;5127657;27;19982;-61
2022/08/18 03:56:27;;;;;;;;;;;19.70;71.20;;;;;;5119665;27;19966;-63
2022/08/18 03:58:56;;;;;;;;;;;19.70;71.10;;;;;;5131064;27;19923;-62
2022/08/18 04:01:25;;;;;;;;;;;19.70;71.20;;;;;;5128879;27;19923;-63
2022/08/18 04:03:52;;;;;;;;;;;19.80;71.20;;;;;;5125821;27;20347;-61
2022/08/18 04:06:21;;;;;;;;;;;19.80;71.30;;;;;;5127496;27;19963;-62
2022/08/18 04:08:50;;;;;;;;;;;19.70;71.30;;;;;;5126560;27;19919;-62
2022/08/18 04:11:17;;;;;;;;;;;19.70;71.50;;;;;;5130180;27;19930;-61
2022/08/18 04:13:43;;;;;;;;;;;19.60;71.60;;;;;;5125711;27;19919;-62
2022/08/18 04:16:11;;;;;;;;;;;19.60;71.50;;;;;;5131713;27;19926;-61
2022/08/18 04:18:38;;;;;;;;;;;19.60;71.50;;;;;;5129017;27;19933;-62
2022/08/18 04:21:07;;;;;;;;;;;19.60;71.50;;;;;;5131167;27;19925;-62
2022/08/18 04:23:33;;;;;;;;;;;19.60;71.50;;;;;;5130132;27;20329;-62
2022/08/18 04:26:01;;;;;;;;;;;19.60;71.40;;;;;;5131480;27;19920;-62
2022/08/18 04:28:29;;;;;;;;;;;19.60;71.30;;;;;;5135645;27;19964;-62
2022/08/18 04:30:58;;;;;;;;;;;19.70;71.30;;;;;;5128111;27;19942;-62
2022/08/18 04:33:26;;;;;;;;;;;19.60;71.40;;;;;;5125667;27;20289;-63
2022/08/18 04:35:53;;;;;;;;;;;19.60;71.40;;;;;;5131511;27;19929;-63
2022/08/18 04:38:20;;;;;;;;;;;19.60;71.50;;;;;;5128571;27;19923;-61
2022/08/18 04:40:47;;;;;;;;;;;19.70;71.40;;;;;;5132426;27;20419;-62
2022/08/18 04:43:14;;;;;;;;;;;19.70;71.40;;;;;;5120453;27;20149;-61
2022/08/18 04:45:43;;;;;;;;;;;19.70;71.60;;;;;;5130736;28;19992;-64
2022/08/18 04:48:10;;;;;;;;;;;19.70;71.60;;;;;;5129818;27;19919;-66
2022/08/18 04:50:39;;;;;;;;;;;19.70;71.70;;;;;;5131224;27;19930;-63
2022/08/18 04:55:51;;;;;;;;;;;19.60;71.80;;;;;;5126681;27;19925;-61
2022/08/18 04:58:17;;;;;;;;;;;19.70;72.10;;;;;;5130610;27;20400;-61
2022/08/18 05:00:44;;;;;;;;;;;19.70;72.30;;;;;;5123438;27;20372;-62
2022/08/18 05:03:11;;;;;;;;;;;19.70;72.20;;;;;;5121625;27;19919;-63
2022/08/18 05:05:39;;;;;;;;;;;19.70;72.20;;;;;;5130067;27;19926;-62
2022/08/18 05:08:06;;;;;;;;;;;19.70;72.20;;;;;;5125537;27;20121;-62
2022/08/18 05:10:32;;;;;;;;;;;19.70;72.40;;;;;;5132809;27;19929;-65
2022/08/18 05:12:59;;;;;;;;;;;19.70;72.40;;;;;;5126211;27;20424;-62
2022/08/18 05:15:26;;;;;;;;;;;19.70;72.40;;;;;;5129805;27;20175;-62
2022/08/18 05:17:53;;;;;;;;;;;19.60;72.40;;;;;;5123286;27;19931;-61
2022/08/18 05:20:22;;;;;;;;;;;19.60;72.40;;;;;;5126196;27;20387;-62
2022/08/18 05:22:50;;;;;;;;;;;19.70;72.30;;;;;;5128479;27;19923;-61
2022/08/18 05:25:17;;;;;;;;;;;19.70;72.10;;;;;;5134112;27;19923;-62
2022/08/18 05:27:43;;;;;;;;;;;19.70;72.20;;;;;;5132934;27;19964;-61
2022/08/18 05:30:13;;;;;;;;;;;19.70;72.50;;;;;;5133608;27;19927;-63
2022/08/18 05:32:40;;;;;;;;;;;19.70;72.60;;;;;;5132961;27;20024;-63
2022/08/18 05:35:10;;;;;;;;;;;19.60;72.90;;;;;;5133561;27;20387;-61
2022/08/18 05:37:43;;;;;;;;;;;19.70;73.20;;;;;;5131000;27;19930;-62
2022/08/18 05:40:14;;;;;;;;;;;19.70;73.50;;;;;;5134773;27;19927;-62
2022/08/18 05:42:41;;;;;;;;;;;19.70;73.50;;;;;;5134984;27;20332;-61
2022/08/18 05:45:10;;;;;;;;;;;19.70;73.50;;;;;;5134033;27;19927;-63
2022/08/18 05:47:37;;;;;;;;;;;19.70;73.80;;;;;;5131122;27;19923;-61
2022/08/18 05:50:05;;;;;;;;;;;19.70;73.90;;;;;;5135127;27;19919;-63
2022/08/18 05:52:35;;;;;;;;;;;19.70;73.90;;;;;;5129933;27;19919;-61
2022/08/18 05:57:52;;;;;;;;;;;19.70;73.80;;;;;;5133941;27;19919;-62
2022/08/18 06:00:22;;;;;;;;;;;19.70;73.90;;;;;;5126723;27;19920;-61
2022/08/18 06:02:52;;;;;;;;;;;19.80;74.00;;;;;;5124660;27;19969;-63
2022/08/18 06:05:23;;;;;;;;;;;19.80;74.10;;;;;;5134644;27;20000;-63
2022/08/18 06:07:52;;;;;;;;;;;19.80;74.30;;;;;;5134382;27;19925;-62
2022/08/18 06:10:19;;;;;;;;;;;19.70;74.30;;;;;;5132843;27;20272;-63
2022/08/18 06:12:48;;;;;;;;;;;19.80;74.70;;;;;;5131751;27;19919;-61
2022/08/18 06:15:17;;;;;;;;;;;19.70;75.50;;;;;;5133830;27;20389;-61
2022/08/18 06:17:50;;;;;;;;;;;19.70;75.40;;;;;;5129208;27;19954;-62
2022/08/18 06:20:22;;;;;;;;;;;19.80;75.40;;;;;;5132910;27;19923;-61
2022/08/18 06:23:00;;;;;;;;;;;19.70;75.00;;;;;;5130535;27;19924;-62
2022/08/18 06:25:33;;;;;;;;;;;19.80;74.90;;;;;;5128242;27;19931;-62
2022/08/18 06:28:03;;;;;;;;;;;19.80;75.10;;;;;;5134668;27;19927;-64
2022/08/18 06:30:38;;;;;;;;;;;19.80;74.80;;;;;;5123443;27;19919;-63
2022/08/18 06:33:10;;;;;;;;;;;19.80;74.80;;;;;;5130949;27;19919;-62
2022/08/18 06:35:38;;;;;;;;;;;19.90;74.90;;;;;;5133169;27;19933;-62
2022/08/18 06:41:00;;;;;;;;;;;19.90;75.10;;;;;;5127642;27;19924;-62
2022/08/18 06:43:27;;;;;;;;;;;19.90;75.20;;;;;;5132973;27;20415;-62
2022/08/18 06:45:56;;;;;;;;;;;19.90;75.10;;;;;;5128619;27;19919;-61
2022/08/18 06:48:27;;;;;;;;;;;19.80;75.70;;;;;;5131308;27;19970;-61
2022/08/18 06:50:56;;;;;;;;;;;19.80;75.60;;;;;;5130052;27;20585;-61
2022/08/18 06:53:43;;;;;;;;;;;19.80;75.70;;;;;;5130012;27;19974;-61
2022/08/18 06:56:21;;;;;;;;;;;19.80;75.80;;;;;;5131512;27;19919;-62
2022/08/18 06:58:49;;;;;;;;;;;19.70;76.00;;;;;;5126086;27;19930;-61
2022/08/18 07:01:17;;;;;;;;;;;19.80;76.10;;;;;;5126262;27;20095;-62
2022/08/18 07:03:48;;;;;;;;;;;19.80;76.40;;;;;;5123837;27;20548;-62
2022/08/18 07:06:25;;;;;;;;;;;19.70;76.50;;;;;;5136704;27;20149;-63
2022/08/18 07:08:53;;;;;;;;;;;19.80;76.50;;;;;;5123826;27;19966;-62
2022/08/18 07:11:22;;;;;;;;;;;19.80;76.60;;;;;;5128774;27;19968;-62
2022/08/18 07:13:50;;;;;;;;;;;19.90;76.20;;;;;;5131875;27;19919;-61
2022/08/18 07:16:18;;;;;;;;;;;19.90;76.10;;;;;;5130579;27;19926;-62
2022/08/18 07:18:45;;;;;;;;;;;19.90;76.50;;;;;;5131726;27;19920;-63
2022/08/18 07:21:24;;;;;;;;;;;20.00;76.50;;;;;;5132528;27;20392;-62
2022/08/18 07:23:58;;;;;;;;;;;20.00;76.50;;;;;;5129038;27;19919;-62
2022/08/18 07:26:27;;;;;;;;;;;20.00;76.40;;;;;;5132984;27;19945;-61
2022/08/18 07:28:53;;;;;;;;;;;20.10;76.90;;;;;;5133017;27;19923;-63
2022/08/18 07:31:25;;;;;;;;;;;20.00;77.10;;;;;;5124995;27;19923;-63
2022/08/18 07:33:55;;;;;;;;;;;20.00;77.20;;;;;;5124590;27;19919;-62
2022/08/18 07:36:24;;;;;;;;;;;20.10;77.30;;;;;;5131073;27;20394;-62
2022/08/18 07:38:54;;;;;;;;;;;20.10;77.50;;;;;;5131315;27;19975;-63
2022/08/18 07:41:25;;;;;;;;;;;20.10;77.30;;;;;;5137636;27;20010;-62
2022/08/18 07:44:01;;;;;;;;;;;20.10;77.10;;;;;;5132843;27;19927;-62
2022/08/18 07:46:32;;;;;;;;;;;20.10;77.50;;;;;;5132383;27;19919;-61
2022/08/18 07:49:00;;;;;;;;;;;20.10;78.00;;;;;;5131505;27;19931;-64
2022/08/18 07:51:32;;;;;;;;;;;20.10;78.00;;;;;;5132642;27;20342;-62
2022/08/18 07:54:00;;;;;;;;;;;20.10;78.10;;;;;;5125158;27;19969;-62
2022/08/18 07:56:36;;;;;;;;;;;20.10;78.10;;;;;;5130040;27;20025;-62
2022/08/18 07:59:09;;;;;;;;;;;20.10;78.10;;;;;;5122511;27;19926;-62
2022/08/18 08:01:39;;;;;;;;;;;20.10;78.10;;;;;;5124136;27;19942;-70
2022/08/18 08:04:10;;;;;;;;;;;20.10;78.30;;;;;;5119857;27;19919;-70
2022/08/18 08:06:39;;;;;;;;;;;20.10;78.40;;;;;;5119820;27;21425;-69
2022/08/18 08:09:12;;;;;;;;;;;20.10;78.50;;;;;;5131691;27;19956;-70
2022/08/18 08:11:44;;;;;;;;;;;20.10;78.40;;;;;;5122716;27;19942;-69
2022/08/18 08:14:24;;;;;;;;;;;20.10;78.60;;;;;;5123526;27;20336;-70
2022/08/18 08:16:56;;;;;;;;;;;20.10;78.70;;;;;;5130965;27;20319;-70
2022/08/18 08:19:34;;;;;;;;;;;20.10;79.10;;;;;;5128846;27;20417;-70
2022/08/18 08:22:05;;;;;;;;;;;20.10;79.20;;;;;;5124454;27;19930;-70
2022/08/18 08:24:37;;;;;;;;;;;20.10;79.00;;;;;;5128731;27;19927;-69
2022/08/18 08:27:09;;;;;;;;;;;20.00;79.20;;;;;;5128981;27;19920;-69
2022/08/18 08:29:41;;;;;;;;;;;20.10;79.20;;;;;;5126673;27;20180;-69
2022/08/18 08:32:11;;;;;;;;;;;20.00;79.40;;;;;;5128873;27;19941;-69
2022/08/18 08:34:40;;;;;;;;;;;20.10;79.40;;;;;;5128873;27;19930;-69
2022/08/18 08:37:09;;;;;;;;;;;20.10;79.40;;;;;;5130426;27;20316;-69
2022/08/18 08:39:39;;;;;;;;;;;20.10;79.40;;;;;;5127287;27;20130;-70
2022/08/18 08:42:09;;;;;;;;;;;20.10;79.30;;;;;;5121220;27;19930;-70
2022/08/18 08:44:40;;;;;;;;;;;20.10;79.50;;;;;;5124805;27;19988;-69
2022/08/18 08:47:10;;;;;;;;;;;20.10;79.10;;;;;;5129115;27;19919;-69
2022/08/18 08:49:38;;;;;;;;;;;20.10;79.00;;;;;;5129548;27;20407;-69
2022/08/18 08:52:09;;;;;;;;;;;20.20;78.90;;;;;;5129534;27;19926;-69
2022/08/18 08:54:42;;;;;;;;;;;20.20;78.20;;;;;;5129035;27;19945;-69
2022/08/18 08:57:09;;;;;;;;;;;20.20;78.30;;;;;;5130514;27;20303;-69
2022/08/18 08:59:38;;;;;;;;;;;20.30;78.10;;;;;;5124411;27;19919;-70
2022/08/18 09:02:15;;;;;;;;;;;20.40;78.00;;;;;;5126750;27;20097;-70
2022/08/18 09:04:47;;;;;;;;;;;20.50;77.10;;;;;;5128022;27;19926;-70
2022/08/18 09:07:23;;;;;;;;;;;20.60;77.20;;;;;;5129220;27;19963;-70
2022/08/18 09:10:03;;;;;;;;;;;20.80;76.40;;;;;;5133702;27;19926;-70
2022/08/18 09:12:41;;;;;;;;;;;20.90;76.50;;;;;;5130543;27;19919;-70
2022/08/18 09:15:25;;;;;;;;;;;21.00;76.70;;;;;;5134093;27;19926;-69
2022/08/18 09:18:01;;;;;;;;;;;21.10;76.30;;;;;;5133456;27;20407;-70
2022/08/18 09:20:34;;;;;;;;;;;21.10;76.00;;;;;;5134235;27;19934;-70
2022/08/18 09:23:04;;;;;;;;;;;21.10;76.20;;;;;;5130060;27;19925;-69
2022/08/18 09:25:33;;;;;;;;;;;21.20;76.30;;;;;;5135559;27;19926;-70
2022/08/18 09:28:08;;;;;;;;;;;21.20;76.50;;;;;;5128020;27;20014;-69
2022/08/18 09:30:43;;;;;;;;;;;21.20;76.30;;;;;;5131617;27;19933;-69
2022/08/18 09:33:20;;;;;;;;;;;21.10;76.70;;;;;;5127717;27;19920;-70
2022/08/18 09:35:54;;;;;;;;;;;21.20;76.90;;;;;;5121483;27;19919;-69
2022/08/18 09:43:54;;;;;;;;;;;21.10;77.40;;;;;;5134228;27;20049;-69
2022/08/18 09:46:36;;;;;;;;;;;21.10;77.30;;;;;;5133886;27;19930;-69
2022/08/18 09:49:17;;;;;;;;;;;21.10;77.70;;;;;;5132845;27;19926;-69
2022/08/18 09:51:45;;;;;;;;;;;21.10;78.10;;;;;;5137628;27;20397;-69
2022/08/18 09:54:13;;;;;;;;;;;21.10;78.10;;;;;;5131707;27;19919;-69
2022/08/18 09:56:57;;;;;;;;;;;21.10;78.10;;;;;;5131054;27;19942;-70
2022/08/18 09:59:42;;;;;;;;;;;21.10;78.20;;;;;;5127835;27;19923;-70
2022/08/18 10:02:10;;;;;;;;;;;21.10;78.20;;;;;;5133306;27;19975;-69
2022/08/18 10:04:47;;;;;;;;;;;21.10;78.10;;;;;;5137530;27;20595;-70
2022/08/18 10:07:29;;;;;;;;;;;21.10;78.00;;;;;;5127772;27;20296;-70
2022/08/18 10:10:08;;;;;;;;;;;21.10;78.10;;;;;;5124885;27;19919;-69
2022/08/18 10:12:47;;;;;;;;;;;21.10;78.30;;;;;;5132459;27;19959;-69
2022/08/18 10:15:32;;;;;;;;;;;21.10;78.20;;;;;;5126703;27;19924;-70
2022/08/18 10:18:13;;;;;;;;;;;21.10;78.60;;;;;;5126337;27;20311;-69
2022/08/18 10:20:47;;;;;;;;;;;21.10;78.70;;;;;;5120202;27;19927;-70
2022/08/18 10:23:39;;;;;;;;;;;21.10;78.90;;;;;;5131044;27;19927;-70
2022/08/18 10:26:27;;;;;;;;;;;21.00;79.20;;;;;;5129299;27;20283;-70
2022/08/18 10:28:55;;;;;;;;;;;21.00;78.50;;;;;;5126211;27;20406;-70
2022/08/18 10:31:22;;;;;;;;;;;21.10;78.60;;;;;;5131236;27;20026;-70
2022/08/18 10:34:03;;;;;;;;;;;21.10;79.00;;;;;;5123056;27;19923;-70
2022/08/18 10:36:37;;;;;;;;;;;21.00;79.10;;;;;;5125882;27;19925;-70
2022/08/18 10:39:05;;;;;;;;;;;21.00;79.40;;;;;;5131396;27;19923;-68
2022/08/18 10:41:35;;;;;;;;;;;21.00;79.30;;;;;;5122217;27;19980;-70
2022/08/18 10:44:02;;;;;;;;;;;21.00;79.20;;;;;;5132431;27;19919;-70
2022/08/18 10:46:32;;;;;;;;;;;21.00;79.10;;;;;;5133830;27;20376;-69
2022/08/18 10:49:01;;;;;;;;;;;21.00;79.10;;;;;;5131680;27;20013;-70
2022/08/18 10:51:35;;;;;;;;;;;21.00;79.20;;;;;;5127996;27;19927;-70
2022/08/18 10:54:06;;;;;;;;;;;21.00;79.20;;;;;;5131841;27;19920;-70
2022/08/18 10:56:40;;;;;;;;;;;21.10;79.10;;;;;;5124712;27;19919;-70
2022/08/18 10:59:11;;;;;;;;;;;21.10;78.90;;;;;;5126299;27;20265;-70
2022/08/18 11:01:44;;;;;;;;;;;21.10;78.90;;;;;;5131524;27;20303;-70
2022/08/18 11:04:20;;;;;;;;;;;21.10;78.90;;;;;;5131260;27;19926;-70
2022/08/18 11:06:48;;;;;;;;;;;21.10;79.00;;;;;;5132008;27;19926;-70
2022/08/18 11:09:22;;;;;;;;;;;21.10;79.20;;;;;;5128853;27;19930;-70
2022/08/18 11:11:51;;;;;;;;;;;21.10;79.20;;;;;;5129828;27;20364;-70
2022/08/18 11:14:26;;;;;;;;;;;21.10;79.40;;;;;;5129744;27;20003;-70
2022/08/18 11:16:58;;;;;;;;;;;21.20;79.60;;;;;;5127178;27;19972;-70
2022/08/18 11:19:25;;;;;;;;;;;21.20;79.80;;;;;;5131173;27;19919;-70
2022/08/18 11:21:52;;;;;;;;;;;21.20;79.80;;;;;;5133298;27;20122;-70
2022/08/18 11:24:20;;;;;;;;;;;21.20;79.40;;;;;;5125867;27;19926;-70
2022/08/18 11:26:49;;;;;;;;;;;21.20;79.90;;;;;;5130059;27;19919;-70
2022/08/18 11:29:28;;;;;;;;;;;21.20;80.10;;;;;;5121334;27;20269;-70
2022/08/18 11:31:57;;;;;;;;;;;21.30;80.20;;;;;;5132815;27;19992;-70
2022/08/18 11:34:28;;;;;;;;;;;21.20;80.10;;;;;;5125970;27;19945;-70
2022/08/18 11:36:56;;;;;;;;;;;21.20;80.10;;;;;;5132477;27;20373;-70
2022/08/18 11:39:23;;;;;;;;;;;21.20;79.60;;;;;;5131008;27;20364;-70
2022/08/18 11:41:50;;;;;;;;;;;21.20;80.00;;;;;;5131142;27;19958;-69
2022/08/18 11:44:18;;;;;;;;;;;21.20;80.20;;;;;;5124362;27;19919;-69
2022/08/18 11:46:46;;;;;;;;;;;21.20;79.80;;;;;;5128863;27;19946;-69
2022/08/18 11:49:15;;;;;;;;;;;21.20;80.10;;;;;;5131002;27;20224;-70
2022/08/18 11:51:54;;;;;;;;;;;21.30;79.70;;;;;;5126155;27;19926;-69
2022/08/18 11:54:21;;;;;;;;;;;21.30;79.10;;;;;;5129380;27;20376;-69
2022/08/18 11:56:48;;;;;;;;;;;21.50;78.70;;;;;;5123061;27;19919;-69
2022/08/18 11:59:31;;;;;;;;;;;21.60;78.60;;;;;;5124587;27;19919;-69
2022/08/18 12:01:59;;;;;;;;;;;21.70;78.40;;;;;;5123472;27;19919;-69
2022/08/18 12:04:29;;;;;;;;;;;21.90;78.30;;;;;;5126355;27;20143;-69
2022/08/18 12:06:59;;;;;;;;;;;22.00;78.20;;;;;;5130442;27;20262;-69
2022/08/18 12:09:29;;;;;;;;;;;22.00;77.90;;;;;;5132530;27;19942;-68
2022/08/18 12:11:57;;;;;;;;;;;22.10;78.00;;;;;;5129549;27;20138;-69
2022/08/18 12:14:25;;;;;;;;;;;22.10;77.90;;;;;;5128897;27;19919;-70
2022/08/18 12:16:53;;;;;;;;;;;22.20;77.90;;;;;;5130399;27;19923;-69
2022/08/18 12:19:21;;;;;;;;;;;22.30;77.70;;;;;;5129589;27;19964;-69
2022/08/18 12:21:50;;;;;;;;;;;22.30;77.40;;;;;;5132262;27;20273;-68
2022/08/18 12:24:20;;;;;;;;;;;22.40;77.20;;;;;;5129867;27;19920;-69
2022/08/18 12:26:47;;;;;;;;;;;22.50;77.20;;;;;;5129982;27;19965;-69
2022/08/18 12:29:13;;;;;;;;;;;22.50;77.10;;;;;;5129852;27;19935;-69
2022/08/18 12:31:40;;;;;;;;;;;22.60;76.50;;;;;;5130985;27;19919;-69
2022/08/18 12:34:07;;;;;;;;;;;22.60;76.90;;;;;;5134381;27;19927;-69
2022/08/18 12:36:36;;;;;;;;;;;22.60;76.80;;;;;;5129003;27;19963;-69
2022/08/18 12:39:03;;;;;;;;;;;22.60;76.60;;;;;;5131512;27;19958;-69
2022/08/18 12:41:29;;;;;;;;;;;22.70;76.50;;;;;;5125856;27;19919;-69
2022/08/18 12:43:56;;;;;;;;;;;22.80;76.30;;;;;;5125641;28;19933;-67
2022/08/18 12:46:23;;;;;;;;;;;22.80;76.20;;;;;;5132308;28;19919;-69
2022/08/18 12:48:50;;;;;;;;;;;22.90;76.00;;;;;;5130240;27;19926;-69
2022/08/18 12:51:17;;;;;;;;;;;23.00;75.40;;;;;;5128944;27;19965;-69
2022/08/18 12:53:45;;;;;;;;;;;23.00;75.00;;;;;;5124377;27;20348;-69
2022/08/18 12:56:16;;;;;;;;;;;23.10;75.00;;;;;;5127866;27;20031;-69
2022/08/18 12:58:43;;;;;;;;;;;23.30;74.80;;;;;;5127730;27;19923;-69
2022/08/18 13:01:10;;;;;;;;;;;23.30;74.50;;;;;;5124376;27;19927;-69
2022/08/18 13:03:36;;;;;;;;;;;23.50;74.40;;;;;;5133399;27;20364;-70
2022/08/18 13:06:03;;;;;;;;;;;23.60;73.30;;;;;;5130163;27;19934;-69
2022/08/18 13:08:30;;;;;;;;;;;23.60;73.60;;;;;;5132233;27;19923;-68
2022/08/18 13:11:00;;;;;;;;;;;23.70;73.40;;;;;;5128374;27;19920;-68
2022/08/18 13:13:27;;;;;;;;;;;23.70;72.70;;;;;;5130974;27;20364;-69
2022/08/18 13:15:55;;;;;;;;;;;23.70;72.80;;;;;;5131883;27;19920;-68
2022/08/18 13:18:22;;;;;;;;;;;23.60;73.10;;;;;;5129733;27;20373;-68
2022/08/18 13:20:49;;;;;;;;;;;23.60;73.10;;;;;;5127416;27;19930;-68
2022/08/18 13:23:15;;;;;;;;;;;23.60;72.90;;;;;;5129036;27;19919;-69
2022/08/18 13:25:42;;;;;;;;;;;23.60;73.10;;;;;;5124922;27;19923;-68
2022/08/18 13:28:10;;;;;;;;;;;23.60;72.90;;;;;;5116364;27;19919;-68
2022/08/18 13:30:37;;;;;;;;;;;23.60;72.50;;;;;;5124112;27;19925;-68
2022/08/18 13:33:04;;;;;;;;;;;23.60;72.40;;;;;;5126711;27;19926;-68
2022/08/18 13:35:31;;;;;;;;;;;23.60;72.40;;;;;;5127919;27;19943;-68
2022/08/18 13:37:57;;;;;;;;;;;23.60;72.50;;;;;;5127885;27;19919;-68
2022/08/18 13:40:24;;;;;;;;;;;23.60;72.50;;;;;;5129541;27;20407;-68
2022/08/18 13:42:51;;;;;;;;;;;23.60;72.50;;;;;;5122334;27;20038;-68
2022/08/18 13:45:21;;;;;;;;;;;23.50;72.60;;;;;;5130251;27;19919;-68
2022/08/18 13:47:47;;;;;;;;;;;23.50;72.60;;;;;;5130088;27;19919;-68
2022/08/18 13:50:14;;;;;;;;;;;23.50;72.60;;;;;;5133221;27;19933;-67
2022/08/18 13:52:41;;;;;;;;;;;23.60;72.40;;;;;;5130995;27;19920;-68
2022/08/18 13:55:09;;;;;;;;;;;23.50;72.30;;;;;;5124699;27;19919;-67
2022/08/18 13:57:37;;;;;;;;;;;23.50;72.20;;;;;;5124902;27;19926;-67
2022/08/18 14:00:05;;;;;;;;;;;23.50;72.20;;;;;;5133313;27;20017;-68
2022/08/18 14:02:33;;;;;;;;;;;23.50;72.00;;;;;;5135643;27;19919;-68
2022/08/18 14:04:59;;;;;;;;;;;23.50;71.90;;;;;;5133018;27;19920;-69
2022/08/18 14:07:26;;;;;;;;;;;23.60;71.80;;;;;;5136735;27;20049;-67
2022/08/18 14:09:53;;;;;;;;;;;23.60;71.60;;;;;;5138783;27;19968;-68
2022/08/18 14:12:21;;;;;;;;;;;23.60;71.50;;;;;;5127411;27;19919;-69
2022/08/18 14:14:48;;;;;;;;;;;23.60;71.00;;;;;;5130327;27;20419;-67
2022/08/18 14:17:14;;;;;;;;;;;23.60;70.80;;;;;;5135020;27;19927;-68
2022/08/18 14:27:58;;;;;;;;;;;23.70;70.00;;;;;;5126239;27;20428;-68
2022/08/18 14:30:25;;;;;;;;;;;23.80;69.90;;;;;;5131001;27;19944;-68
2022/08/18 14:32:52;;;;;;;;;;;23.70;70.00;;;;;;5132081;27;20223;-68
2022/08/18 14:35:22;;;;;;;;;;;23.80;69.80;;;;;;5133318;27;19923;-69
2022/08/18 14:37:49;;;;;;;;;;;23.80;69.80;;;;;;5131691;27;20265;-69
2022/08/18 14:40:16;;;;;;;;;;;23.90;69.90;;;;;;5141160;27;19919;-68
2022/08/18 14:42:43;;;;;;;;;;;23.90;69.80;;;;;;5128315;27;20368;-69
2022/08/18 14:45:13;;;;;;;;;;;24.00;69.90;;;;;;5132549;27;19920;-68
2022/08/18 14:47:40;;;;;;;;;;;24.00;70.00;;;;;;5131659;27;19948;-68
2022/08/18 14:50:11;;;;;;;;;;;24.00;69.80;;;;;;5134057;27;19920;-69
2022/08/18 14:52:40;;;;;;;;;;;24.10;69.80;;;;;;5129124;27;19935;-68
2022/08/18 14:55:10;;;;;;;;;;;24.10;69.90;;;;;;5126448;27;19958;-69
2022/08/18 14:57:36;;;;;;;;;;;24.20;69.90;;;;;;5128704;27;19942;-68